Spabunker 51 — ECNA — position and weather

sailwx.info

Track history (hours):
 
Tides and Currents Weather Stations Pressure Air Temp Water Temp Dewpoint Dewpoint Depression Visibility Wind Speed Wind Dir Waves Ship Positions

Spabunker 51

Last reported at 2016-May-05 00:32 UTC. Time now 2016-May-05 00:58 UTC.
Position N 36°09' W 005°26'.

Length 84 m; draft 5.8 m.

Type: Tanker. MMSI: 224322240.

Date/timePositionNaut miles runAvg speedWind from/ knotsBaromVisibWave heightAir tempDewpointWater temp
2016-May-05 00:32N 36°09' W 005°26'0 0.0
2016-May-04 23:33N 36°09' W 005°26'0 0.0
2016-May-04 22:33N 36°09' W 005°26'0 0.0
2016-May-04 21:25N 36°09' W 005°26'0 0.0
2016-May-04 09:08N 36°09' W 005°26'0 0.0
2016-May-04 04:33N 36°09' W 005°26'0 0.0
2016-May-04 03:32N 36°09' W 005°26'0 0.0
2016-May-04 02:33N 36°09' W 005°26'0 0.0
2016-May-04 01:33N 36°09' W 005°26'0 0.0
2016-May-04 00:33N 36°09' W 005°26'0 0.0
2016-May-03 23:33N 36°09' W 005°26'0 0.0
2016-May-03 22:33N 36°09' W 005°26'0 0.0
2016-May-03 21:33N 36°09' W 005°26'0 0.0
2016-May-03 20:33N 36°09' W 005°26'0 0.0
2016-May-03 01:31N 36°08' W 005°26'0 0.0
2016-May-02 13:26N 36°08' W 005°26'1 0.0
2016-May-01 16:10N 36°08' W 005°25'0 0.1
2016-May-01 15:25N 36°08' W 005°25'0 0.0
2016-May-01 14:26N 36°08' W 005°25'0 0.0
2016-May-01 13:32N 36°08' W 005°25'0 0.0
2016-May-01 12:33N 36°08' W 005°25'0 0.0
2016-May-01 11:33N 36°08' W 005°25'0 0.0
2016-May-01 10:33N 36°08' W 005°25'1 0.9
2016-May-01 09:12N 36°09' W 005°26'0 0.1
2016-May-01 08:33N 36°09' W 005°26'0 0.0
2016-May-01 07:30N 36°09' W 005°26'0 0.0
2016-May-01 04:20N 36°09' W 005°26'0 0.0
2016-Apr-30 17:23N 36°09' W 005°26'0 0.0
2016-Apr-30 16:33N 36°09' W 005°26'0 0.1
2016-Apr-30 15:33N 36°09' W 005°26'2 2.5
2016-Apr-30 14:33N 36°10' W 005°24'0 0.2
2016-Apr-30 13:33N 36°11' W 005°24'3 0.3
2016-Apr-30 02:33N 36°08' W 005°25'0 0.1
2016-Apr-30 01:31N 36°08' W 005°25'0 0.0
2016-Apr-30 00:17N 36°08' W 005°25'0 0.0
2016-Apr-29 23:32N 36°08' W 005°25'0 0.0
2016-Apr-29 22:33N 36°08' W 005°25'0 0.0
2016-Apr-29 18:17N 36°08' W 005°25'1 0.2
2016-Apr-29 13:33N 36°09' W 005°26'0 0.0
2016-Apr-29 12:33N 36°09' W 005°26'0 0.0
2016-Apr-29 11:24N 36°09' W 005°26'0 0.0
2016-Apr-29 10:31N 36°09' W 005°26'0 0.0
2016-Apr-29 08:32N 36°09' W 005°26'0 0.0
2016-Apr-29 07:14N 36°09' W 005°26'3 0.4
2016-Apr-28 23:11N 36°11' W 005°24'0 0.0
2016-Apr-28 22:31N 36°11' W 005°24'6 0.4
2016-Apr-28 08:33N 36°05' W 005°25'0 0.0
2016-Apr-28 07:31N 36°05' W 005°25'0 0.0
2016-Apr-28 06:32N 36°05' W 005°25'0 0.0
2016-Apr-28 05:33N 36°05' W 005°25'0 0.0
2016-Apr-28 04:31N 36°05' W 005°25'0 0.1
2016-Apr-28 03:20N 36°05' W 005°25'0 0.1
2016-Apr-28 02:05N 36°05' W 005°25'0 0.1
2016-Apr-28 01:31N 36°05' W 005°25'1 0.2
2016-Apr-27 18:33N 36°06' W 005°24'0 0.0
2016-Apr-27 17:33N 36°06' W 005°24'0 0.1
2016-Apr-27 16:23N 36°06' W 005°24'0 0.0
2016-Apr-27 14:33N 36°06' W 005°24'0 0.1
2016-Apr-27 13:33N 36°06' W 005°24'2 0.3
2016-Apr-27 07:33N 36°08' W 005°24'2 1.7
2016-Apr-27 06:27N 36°06' W 005°24'0 0.0
2016-Apr-27 05:20N 36°06' W 005°24'0 0.0
2016-Apr-27 04:03N 36°06' W 005°24'0 0.1
2016-Apr-27 02:33N 36°06' W 005°25'0 0.0
2016-Apr-26 23:11N 36°06' W 005°25'0 0.1
2016-Apr-26 22:33N 36°06' W 005°25'3 2.8
2016-Apr-26 21:33N 36°09' W 005°24'2 1.0
2016-Apr-26 19:33N 36°11' W 005°24'0 0.0
2016-Apr-26 18:33N 36°11' W 005°24'0 0.0
2016-Apr-26 15:25N 36°11' W 005°24'3 0.1
2016-Apr-25 02:05N 36°09' W 005°26'0 0.0
2016-Apr-25 01:28N 36°09' W 005°26'  
Track history (hours):
 
Tides and Currents Weather Stations Pressure Air Temp Water Temp Dewpoint Dewpoint Depression Visibility Wind Speed Wind Dir Waves Ship Positions

Spabunker 51

Last reported at 2016-May-05 00:32 UTC. Time now 2016-May-05 00:58 UTC.
Position N 36°09' W 005°26'.

Length 84 m; draft 5.8 m.

Type: Tanker. MMSI: 224322240.

Date/timePositionNaut miles runAvg speedWind from/ knotsBaromVisibWave heightAir tempDewpointWater temp
2016-May-05 00:32N 36°09' W 005°26'0 0.0
2016-May-04 23:33N 36°09' W 005°26'0 0.0
2016-May-04 22:33N 36°09' W 005°26'0 0.0
2016-May-04 21:25N 36°09' W 005°26'0 0.0
2016-May-04 09:08N 36°09' W 005°26'0 0.0
2016-May-04 04:33N 36°09' W 005°26'0 0.0
2016-May-04 03:32N 36°09' W 005°26'0 0.0
2016-May-04 02:33N 36°09' W 005°26'0 0.0
2016-May-04 01:33N 36°09' W 005°26'0 0.0
2016-May-04 00:33N 36°09' W 005°26'0 0.0
2016-May-03 23:33N 36°09' W 005°26'0 0.0
2016-May-03 22:33N 36°09' W 005°26'0 0.0
2016-May-03 21:33N 36°09' W 005°26'0 0.0
2016-May-03 20:33N 36°09' W 005°26'0 0.0
2016-May-03 01:31N 36°08' W 005°26'0 0.0
2016-May-02 13:26N 36°08' W 005°26'1 0.0
2016-May-01 16:10N 36°08' W 005°25'0 0.1
2016-May-01 15:25N 36°08' W 005°25'0 0.0
2016-May-01 14:26N 36°08' W 005°25'0 0.0
2016-May-01 13:32N 36°08' W 005°25'0 0.0
2016-May-01 12:33N 36°08' W 005°25'0 0.0
2016-May-01 11:33N 36°08' W 005°25'0 0.0
2016-May-01 10:33N 36°08' W 005°25'1 0.9
2016-May-01 09:12N 36°09' W 005°26'0 0.1
2016-May-01 08:33N 36°09' W 005°26'0 0.0
2016-May-01 07:30N 36°09' W 005°26'0 0.0
2016-May-01 04:20N 36°09' W 005°26'0 0.0
2016-Apr-30 17:23N 36°09' W 005°26'0 0.0
2016-Apr-30 16:33N 36°09' W 005°26'0 0.1
2016-Apr-30 15:33N 36°09' W 005°26'2 2.5
2016-Apr-30 14:33N 36°10' W 005°24'0 0.2
2016-Apr-30 13:33N 36°11' W 005°24'3 0.3
2016-Apr-30 02:33N 36°08' W 005°25'0 0.1
2016-Apr-30 01:31N 36°08' W 005°25'0 0.0
2016-Apr-30 00:17N 36°08' W 005°25'0 0.0
2016-Apr-29 23:32N 36°08' W 005°25'0 0.0
2016-Apr-29 22:33N 36°08' W 005°25'0 0.0
2016-Apr-29 18:17N 36°08' W 005°25'1 0.2
2016-Apr-29 13:33N 36°09' W 005°26'0 0.0
2016-Apr-29 12:33N 36°09' W 005°26'0 0.0
2016-Apr-29 11:24N 36°09' W 005°26'0 0.0
2016-Apr-29 10:31N 36°09' W 005°26'0 0.0
2016-Apr-29 08:32N 36°09' W 005°26'0 0.0
2016-Apr-29 07:14N 36°09' W 005°26'3 0.4
2016-Apr-28 23:11N 36°11' W 005°24'0 0.0
2016-Apr-28 22:31N 36°11' W 005°24'6 0.4
2016-Apr-28 08:33N 36°05' W 005°25'0 0.0
2016-Apr-28 07:31N 36°05' W 005°25'0 0.0
2016-Apr-28 06:32N 36°05' W 005°25'0 0.0
2016-Apr-28 05:33N 36°05' W 005°25'0 0.0
2016-Apr-28 04:31N 36°05' W 005°25'0 0.1
2016-Apr-28 03:20N 36°05' W 005°25'0 0.1
2016-Apr-28 02:05N 36°05' W 005°25'0 0.1
2016-Apr-28 01:31N 36°05' W 005°25'1 0.2
2016-Apr-27 18:33N 36°06' W 005°24'0 0.0
2016-Apr-27 17:33N 36°06' W 005°24'0 0.1
2016-Apr-27 16:23N 36°06' W 005°24'0 0.0
2016-Apr-27 14:33N 36°06' W 005°24'0 0.1
2016-Apr-27 13:33N 36°06' W 005°24'2 0.3
2016-Apr-27 07:33N 36°08' W 005°24'2 1.7
2016-Apr-27 06:27N 36°06' W 005°24'0 0.0
2016-Apr-27 05:20N 36°06' W 005°24'0 0.0
2016-Apr-27 04:03N 36°06' W 005°24'0 0.1
2016-Apr-27 02:33N 36°06' W 005°25'0 0.0
2016-Apr-26 23:11N 36°06' W 005°25'0 0.1
2016-Apr-26 22:33N 36°06' W 005°25'3 2.8
2016-Apr-26 21:33N 36°09' W 005°24'2 1.0
2016-Apr-26 19:33N 36°11' W 005°24'0 0.0
2016-Apr-26 18:33N 36°11' W 005°24'0 0.0
2016-Apr-26 15:25N 36°11' W 005°24'3 0.1
2016-Apr-25 02:05N 36°09' W 005°26'0 0.0
2016-Apr-25 01:28N 36°09' W 005°26'  

Dump ship's entire track history